createdAt,value
2022-09-26T00:00:47.095Z,8.37
2022-09-26T00:03:32.879Z,8.97
2022-09-26T00:06:18.757Z,9.30
2022-09-26T00:09:03.752Z,8.47
2022-09-26T00:11:49.399Z,8.23
2022-09-26T00:14:34.515Z,8.83
2022-09-26T00:17:19.673Z,8.77
2022-09-26T00:20:05.092Z,8.37
2022-09-26T00:22:50.017Z,9.07
2022-09-26T00:25:35.173Z,8.63
2022-09-26T00:28:20.415Z,8.53
2022-09-26T00:31:07.965Z,8.10
2022-09-26T00:33:53.126Z,8.87
2022-09-26T00:36:39.014Z,8.60
2022-09-26T00:39:23.985Z,8.57
2022-09-26T00:42:16.089Z,8.70
2022-09-26T00:45:01.055Z,8.50
2022-09-26T00:48:04.015Z,8.87
2022-09-26T00:50:49.669Z,8.27
2022-09-26T00:53:40.158Z,9.07
2022-09-26T00:56:32.214Z,8.37
2022-09-26T00:59:27.421Z,8.63
2022-09-26T01:02:12.878Z,8.33
2022-09-26T01:05:00.077Z,8.00
2022-09-26T01:07:45.284Z,7.90
2022-09-26T01:10:30.576Z,8.60
2022-09-26T01:13:17.026Z,8.43
2022-09-26T01:16:03.411Z,9.00
2022-09-26T01:18:48.667Z,8.63
2022-09-26T01:21:54.203Z,8.97
2022-09-26T01:25:01.202Z,7.70
2022-09-26T01:28:10.816Z,8.53
2022-09-26T01:31:20.048Z,7.80
2022-09-26T01:34:28.091Z,7.77
2022-09-26T01:37:42.551Z,9.13
2022-09-26T01:40:31.634Z,7.67
2022-09-26T01:43:34.135Z,8.20
2022-09-26T01:46:44.612Z,8.70
2022-09-26T01:49:48.107Z,8.87
2022-09-26T01:52:40.996Z,8.33
2022-09-26T01:55:39.242Z,8.47
2022-09-26T01:58:31.074Z,8.30
2022-09-26T02:01:19.791Z,7.63
2022-09-26T02:04:11.136Z,7.90
2022-09-26T02:07:01.633Z,8.60
2022-09-26T02:10:02.471Z,7.87
2022-09-26T02:12:55.243Z,8.37
2022-09-26T02:15:41.774Z,7.33
2022-09-26T02:18:53.944Z,8.30
2022-09-26T02:21:41.295Z,7.90
2022-09-26T02:24:28.107Z,7.73
2022-09-26T02:27:14.875Z,7.63
2022-09-26T02:30:00.189Z,8.37
2022-09-26T02:32:45.861Z,7.93
2022-09-26T02:35:49.534Z,8.00
2022-09-26T02:38:37.667Z,8.00
2022-09-26T02:41:44.510Z,8.23
2022-09-26T02:44:45.337Z,8.10
2022-09-26T02:47:49.919Z,7.83
2022-09-26T02:51:12.787Z,7.57
2022-09-26T02:54:20.063Z,8.77
2022-09-26T02:57:34.232Z,7.57
2022-09-26T03:00:24.770Z,7.60
2022-09-26T03:03:32.229Z,7.97
2022-09-26T03:06:22.346Z,7.30
2022-09-26T03:09:09.454Z,7.43
2022-09-26T03:11:57.048Z,7.90
2022-09-26T03:14:44.420Z,7.50
2022-09-26T03:17:31.322Z,7.77
2022-09-26T03:20:20.012Z,7.83
2022-09-26T03:23:05.504Z,8.10
2022-09-26T03:26:00.501Z,7.57
2022-09-26T03:28:51.927Z,8.30
2022-09-26T03:31:37.093Z,7.17
2022-09-26T03:34:24.410Z,7.73
2022-09-26T03:37:09.808Z,8.30
2022-09-26T03:39:56.201Z,7.70
2022-09-26T03:42:53.710Z,7.57
2022-09-26T03:45:39.323Z,7.73
2022-09-26T03:48:34.435Z,7.90
2022-09-26T03:51:21.040Z,7.40
2022-09-26T03:54:06.219Z,7.50
2022-09-26T03:56:51.505Z,7.60
2022-09-26T03:59:36.727Z,7.57
2022-09-26T04:02:22.621Z,7.13
2022-09-26T04:05:19.690Z,7.03
2022-09-26T04:08:05.674Z,7.70
2022-09-26T04:10:50.987Z,7.60
2022-09-26T04:13:53.574Z,7.70
2022-09-26T04:16:42.353Z,7.10
2022-09-26T04:19:35.154Z,7.33
2022-09-26T04:22:20.498Z,7.67
2022-09-26T04:25:06.884Z,7.27
2022-09-26T04:27:52.280Z,7.77
2022-09-26T04:30:37.516Z,7.67
2022-09-26T04:33:23.118Z,7.53
2022-09-26T04:36:22.011Z,7.67
2022-09-26T04:39:06.911Z,7.10
2022-09-26T04:41:53.171Z,7.13
2022-09-26T04:44:39.739Z,6.63
2022-09-26T04:47:24.753Z,6.67
2022-09-26T04:50:28.983Z,7.17
2022-09-26T04:53:23.266Z,6.80
2022-09-26T04:56:35.087Z,6.43
2022-09-26T04:59:20.278Z,6.57
2022-09-26T05:02:16.006Z,6.47
2022-09-26T05:05:01.447Z,7.03
2022-09-26T05:07:46.902Z,7.00
2022-09-26T05:10:32.287Z,7.20
2022-09-26T05:13:21.397Z,6.73
2022-09-26T05:16:11.216Z,6.70
2022-09-26T05:18:58.042Z,6.40
2022-09-26T05:21:45.570Z,6.83
2022-09-26T05:24:49.257Z,7.13
2022-09-26T05:27:35.514Z,6.73
2022-09-26T05:30:21.003Z,6.20
2022-09-26T05:33:07.563Z,7.10
2022-09-26T05:35:55.691Z,6.67
2022-09-26T05:38:40.573Z,6.40
2022-09-26T05:41:31.279Z,6.27
2022-09-26T05:44:16.634Z,7.20
2022-09-26T05:47:02.121Z,6.17
2022-09-26T05:49:47.290Z,6.20
2022-09-26T05:52:39.267Z,6.40
2022-09-26T05:55:26.479Z,6.50
2022-09-26T05:58:40.521Z,5.70
2022-09-26T06:01:48.190Z,5.90
2022-09-26T06:04:45.648Z,6.27
2022-09-26T06:07:52.803Z,6.07
2022-09-26T06:11:16.016Z,6.10
2022-09-26T06:14:01.312Z,6.63
2022-09-26T06:16:46.442Z,5.90
2022-09-26T06:19:32.546Z,5.70
2022-09-26T06:22:17.822Z,5.67
2022-09-26T06:25:03.435Z,5.43
2022-09-26T06:27:49.243Z,6.23
2022-09-26T06:30:34.726Z,5.60
2022-09-26T06:33:33.504Z,6.13
2022-09-26T06:36:36.803Z,6.40
2022-09-26T06:39:22.042Z,6.17
2022-09-26T06:42:07.675Z,5.37
2022-09-26T06:45:14.797Z,5.67
2022-09-26T06:48:24.546Z,6.10
2022-09-26T06:51:38.096Z,6.17
2022-09-26T06:54:23.627Z,6.20
2022-09-26T06:57:14.719Z,5.97
2022-09-26T07:00:02.470Z,5.67
2022-09-26T07:03:07.728Z,5.90
2022-09-26T07:06:20.029Z,5.30
2022-09-26T07:09:12.268Z,5.50
2022-09-26T07:12:15.371Z,6.40
2022-09-26T07:15:03.721Z,5.50
2022-09-26T07:17:49.850Z,5.50
2022-09-26T07:20:51.217Z,5.50
2022-09-26T07:23:58.755Z,6.07
2022-09-26T07:26:44.939Z,5.30
2022-09-26T07:29:30.566Z,5.67
2022-09-26T07:32:16.619Z,5.53
2022-09-26T07:35:17.367Z,5.60
2022-09-26T07:38:05.062Z,4.90
2022-09-26T07:40:53.781Z,5.17
2022-09-26T07:47:04.658Z,5.23
2022-09-26T07:50:08.971Z,5.33
2022-09-26T07:53:13.354Z,5.77
2022-09-26T07:56:17.307Z,5.60
2022-09-26T07:59:35.645Z,5.03
2022-09-26T08:03:00.789Z,5.20
2022-09-26T08:05:47.218Z,4.40
2022-09-26T08:08:34.493Z,5.20
2022-09-26T08:11:20.341Z,5.03
2022-09-26T08:14:25.567Z,4.67
2022-09-26T08:17:38.114Z,5.07
2022-09-26T08:20:27.354Z,5.03
2022-09-26T08:23:16.489Z,4.77
2022-09-26T08:26:06.778Z,4.63
2022-09-26T08:29:00.362Z,4.77
2022-09-26T08:31:46.241Z,4.87
2022-09-26T08:34:32.080Z,5.40
2022-09-26T08:37:40.472Z,5.13
2022-09-26T08:41:22.873Z,6.30
2022-09-26T08:44:55.856Z,4.97
2022-09-26T08:48:26.894Z,4.67
2022-09-26T08:51:31.875Z,5.10
2022-09-26T08:54:39.077Z,5.03
2022-09-26T08:57:23.918Z,5.23
2022-09-26T09:00:19.013Z,4.60
2022-09-26T09:03:31.551Z,4.30
2022-09-26T09:06:18.187Z,4.77
2022-09-26T09:09:05.665Z,4.27
2022-09-26T09:12:06.770Z,4.80
2022-09-26T09:15:25.358Z,4.57
2022-09-26T09:18:53.311Z,4.47
2022-09-26T09:22:19.769Z,4.60
2022-09-26T09:25:29.136Z,4.53
2022-09-26T09:28:41.893Z,4.30
2022-09-26T09:31:32.236Z,4.30
2022-09-26T09:34:42.477Z,4.13
2022-09-26T09:37:53.486Z,4.13
2022-09-26T09:40:59.354Z,4.53
2022-09-26T09:43:52.942Z,4.40
2022-09-26T09:46:42.558Z,4.30
2022-09-26T09:49:27.628Z,4.17
2022-09-26T09:52:38.215Z,3.90
2022-09-26T09:55:42.265Z,4.23
2022-09-26T09:58:34.857Z,3.83
2022-09-26T10:01:35.412Z,4.00
2022-09-26T10:04:35.862Z,3.80
2022-09-26T10:07:22.370Z,3.97
2022-09-26T10:11:12.827Z,3.57
2022-09-26T10:14:22.965Z,3.87
2022-09-26T10:17:22.521Z,3.80
2022-09-26T10:20:42.912Z,3.80
2022-09-26T10:23:33.927Z,3.60
2022-09-26T10:26:31.085Z,3.93
2022-09-26T10:29:38.220Z,3.80
2022-09-26T10:32:23.677Z,3.63
2022-09-26T10:35:20.126Z,3.67
2022-09-26T10:38:08.067Z,3.40
2022-09-26T10:41:02.077Z,4.03
2022-09-26T10:43:56.210Z,3.83
2022-09-26T10:47:10.351Z,3.47
2022-09-26T10:50:19.984Z,3.63
2022-09-26T10:53:25.182Z,3.80
2022-09-26T10:56:14.138Z,3.40
2022-09-26T10:59:04.309Z,3.77
2022-09-26T11:01:55.738Z,3.73
2022-09-26T11:05:05.322Z,3.70
2022-09-26T11:08:06.697Z,4.10
2022-09-26T11:11:17.185Z,3.30
2022-09-26T11:14:29.183Z,4.00
2022-09-26T11:17:50.858Z,3.50
2022-09-26T11:20:50.493Z,3.63
2022-09-26T11:23:44.838Z,3.50
2022-09-26T11:26:49.291Z,3.10
2022-09-26T11:29:41.785Z,3.43
2022-09-26T11:32:41.377Z,3.77
2022-09-26T11:36:14.678Z,3.77
2022-09-26T11:39:33.931Z,3.80
2022-09-26T11:42:56.122Z,3.47
2022-09-26T11:46:16.464Z,3.63
2022-09-26T11:49:45.999Z,3.60
2022-09-26T11:53:23.152Z,4.23
2022-09-26T11:56:11.178Z,3.43
2022-09-26T11:59:06.491Z,3.83
2022-09-26T12:02:01.941Z,3.83
2022-09-26T12:05:05.736Z,4.03
2022-09-26T12:07:59.981Z,3.53
2022-09-26T12:11:22.622Z,3.60
2022-09-26T12:14:39.186Z,3.63
2022-09-26T12:17:36.921Z,3.30
2022-09-26T12:20:47.130Z,3.50
2022-09-26T12:23:57.630Z,3.60
2022-09-26T12:26:59.233Z,3.93
2022-09-26T12:30:11.068Z,3.73
2022-09-26T12:33:13.984Z,3.50
2022-09-26T12:36:21.801Z,3.67
2022-09-26T12:39:22.019Z,3.90
2022-09-26T12:42:26.450Z,3.53
2022-09-26T12:45:38.834Z,4.23
2022-09-26T12:48:50.850Z,3.33
2022-09-26T12:51:44.173Z,3.97
2022-09-26T12:54:40.105Z,3.73
2022-09-26T12:57:51.090Z,3.80
2022-09-26T13:00:44.698Z,4.07
2022-09-26T13:03:51.131Z,4.07
2022-09-26T13:06:57.324Z,3.57
2022-09-26T13:10:15.796Z,4.57
2022-09-26T13:13:37.182Z,4.07
2022-09-26T13:16:35.236Z,4.27
2022-09-26T13:19:29.350Z,4.33
2022-09-26T13:22:45.305Z,4.10
2022-09-26T13:25:48.754Z,4.20
2022-09-26T13:29:18.562Z,4.83
2022-09-26T13:32:18.352Z,4.77
2022-09-26T13:35:28.413Z,4.80
2022-09-26T13:38:41.302Z,4.70
2022-09-26T13:41:53.965Z,4.13
2022-09-26T13:44:57.362Z,4.50
2022-09-26T13:47:56.032Z,4.83
2022-09-26T13:50:48.073Z,4.93
2022-09-26T13:53:55.825Z,5.20
2022-09-26T13:56:45.781Z,4.63
2022-09-26T13:59:34.459Z,5.07
2022-09-26T14:02:26.238Z,4.90
2022-09-26T14:05:17.693Z,5.13
2022-09-26T14:08:44.068Z,4.60
2022-09-26T14:11:51.481Z,4.70
2022-09-26T14:14:46.120Z,5.07
2022-09-26T14:17:43.830Z,4.97
2022-09-26T14:20:33.991Z,4.83
2022-09-26T14:23:40.744Z,4.60
2022-09-26T14:26:41.614Z,5.13
2022-09-26T14:29:29.735Z,5.23
2022-09-26T14:32:33.506Z,5.20
2022-09-26T14:35:28.121Z,4.83
2022-09-26T14:38:19.868Z,4.87
2022-09-26T14:41:05.728Z,5.23
2022-09-26T14:43:51.721Z,4.93
2022-09-26T14:46:37.096Z,5.27
2022-09-26T14:49:26.465Z,5.33
2022-09-26T14:52:19.955Z,5.30
2022-09-26T14:55:06.929Z,4.80
2022-09-26T14:57:52.325Z,5.17
2022-09-26T15:00:43.102Z,4.80
2022-09-26T15:03:28.617Z,5.20
2022-09-26T15:06:14.339Z,4.77
2022-09-26T15:09:10.356Z,5.10
2022-09-26T15:11:59.535Z,5.13
2022-09-26T15:14:55.510Z,5.40
2022-09-26T15:17:47.785Z,5.40
2022-09-26T15:20:38.060Z,5.10
2022-09-26T15:23:28.577Z,4.70
2022-09-26T15:26:18.210Z,5.30
2022-09-26T15:29:06.772Z,5.03
2022-09-26T15:31:53.153Z,4.67
2022-09-26T15:34:39.720Z,4.93
2022-09-26T15:37:31.635Z,4.93
2022-09-26T15:40:29.509Z,4.90
2022-09-26T15:43:22.502Z,5.53
2022-09-26T15:46:29.139Z,4.80
2022-09-26T15:49:20.130Z,5.30
2022-09-26T15:52:05.466Z,5.30
2022-09-26T15:54:52.453Z,5.47
2022-09-26T15:57:37.553Z,5.17
2022-09-26T16:00:22.952Z,5.10
2022-09-26T16:03:36.935Z,4.83
2022-09-26T16:06:29.072Z,4.70
2022-09-26T16:09:14.234Z,4.50
2022-09-26T16:12:03.018Z,4.97
2022-09-26T16:15:00.405Z,4.63
2022-09-26T16:17:54.279Z,5.27
2022-09-26T16:20:39.797Z,4.60
2022-09-26T16:23:26.982Z,5.63
2022-09-26T16:26:38.004Z,4.57
2022-09-26T16:29:35.198Z,5.17
2022-09-26T16:32:21.915Z,4.83
2022-09-26T16:35:19.500Z,4.63
2022-09-26T16:38:26.839Z,4.77
2022-09-26T16:41:48.911Z,4.67
2022-09-26T16:44:36.596Z,4.73
2022-09-26T16:47:31.573Z,4.83
2022-09-26T16:50:26.551Z,4.87
2022-09-26T16:53:11.564Z,5.17
2022-09-26T16:55:58.190Z,4.80
2022-09-26T16:58:52.402Z,4.97
2022-09-26T17:01:56.093Z,4.20
2022-09-26T17:04:43.278Z,4.80
2022-09-26T17:07:28.067Z,4.23
2022-09-26T17:10:14.098Z,4.33
2022-09-26T17:13:02.517Z,4.33
2022-09-26T17:15:48.512Z,4.53
2022-09-26T17:18:34.874Z,5.37
2022-09-26T17:21:20.104Z,4.30
2022-09-26T17:24:34.915Z,4.17
2022-09-26T17:27:25.694Z,4.20
2022-09-26T17:30:16.922Z,4.27
2022-09-26T17:33:04.287Z,4.30
2022-09-26T17:35:49.489Z,4.47
2022-09-26T17:38:38.692Z,4.17
2022-09-26T17:41:29.717Z,4.50
2022-09-26T17:44:15.036Z,4.70
2022-09-26T17:47:00.570Z,3.73
2022-09-26T17:49:55.975Z,4.50
2022-09-26T17:52:41.051Z,4.43
2022-09-26T17:55:28.198Z,4.30
2022-09-26T17:58:13.396Z,3.87
2022-09-26T18:00:59.240Z,3.70
2022-09-26T18:03:44.934Z,4.10
2022-09-26T18:06:32.663Z,3.93
2022-09-26T18:09:19.186Z,4.47
2022-09-26T18:12:04.726Z,4.17
2022-09-26T18:14:51.083Z,4.50
2022-09-26T18:17:36.313Z,4.30
2022-09-26T18:20:24.059Z,3.97
2022-09-26T18:23:16.311Z,3.30
2022-09-26T18:26:01.955Z,3.60
2022-09-26T18:28:47.237Z,4.03
2022-09-26T18:31:36.351Z,3.37
2022-09-26T18:34:21.391Z,3.30
2022-09-26T18:37:06.549Z,3.83
2022-09-26T18:39:55.094Z,3.83
2022-09-26T18:42:41.399Z,4.27
2022-09-26T18:45:36.543Z,3.70
2022-09-26T18:48:32.690Z,3.80
2022-09-26T18:51:18.087Z,3.10
2022-09-26T18:54:07.201Z,3.93
2022-09-26T18:57:13.475Z,3.63
2022-09-26T19:00:00.050Z,3.47
2022-09-26T19:02:45.344Z,3.43
2022-09-26T19:05:30.655Z,3.67
2022-09-26T19:08:33.487Z,3.60
2022-09-26T19:11:24.680Z,3.67
2022-09-26T19:14:15.766Z,3.10
2022-09-26T19:17:01.577Z,3.20
2022-09-26T19:19:46.789Z,3.73
2022-09-26T19:22:32.293Z,3.70
2022-09-26T19:25:17.393Z,3.37
2022-09-26T19:28:02.655Z,3.77
2022-09-26T19:30:47.995Z,3.70
2022-09-26T19:33:33.073Z,3.40
2022-09-26T19:36:19.203Z,3.30
2022-09-26T19:39:10.690Z,3.67
2022-09-26T19:41:55.762Z,3.70
2022-09-26T19:44:41.885Z,3.33
2022-09-26T19:47:33.310Z,3.60
2022-09-26T19:50:21.430Z,4.53
2022-09-26T19:53:13.465Z,4.83
2022-09-26T19:55:58.303Z,4.70
2022-09-26T19:58:46.196Z,4.67
2022-09-26T20:01:31.580Z,4.30
2022-09-26T20:04:19.101Z,3.47
2022-09-26T20:07:05.599Z,4.57
2022-09-26T20:09:52.018Z,4.10
2022-09-26T20:12:37.074Z,3.97
2022-09-26T20:15:22.081Z,4.13
2022-09-26T20:18:12.249Z,3.60
2022-09-26T20:20:58.453Z,3.63
2022-09-26T20:23:44.765Z,3.67
2022-09-26T20:26:32.589Z,3.47
2022-09-26T20:29:17.440Z,3.50
2022-09-26T20:32:05.788Z,3.47
2022-09-26T20:34:51.052Z,3.57
2022-09-26T20:37:40.078Z,2.90
2022-09-26T20:40:27.036Z,3.33
2022-09-26T20:43:18.833Z,3.27
2022-09-26T20:46:09.907Z,2.77
2022-09-26T20:48:55.071Z,2.90
2022-09-26T20:51:40.615Z,2.87
2022-09-26T20:54:30.641Z,2.67
2022-09-26T20:57:17.148Z,2.60
2022-09-26T21:00:02.192Z,2.83
2022-09-26T21:02:51.442Z,2.90
2022-09-26T21:05:37.078Z,2.57
2022-09-26T21:08:30.318Z,2.97
2022-09-26T21:11:18.639Z,2.63
2022-09-26T21:14:03.829Z,2.37
2022-09-26T21:16:51.597Z,2.40
2022-09-26T21:19:36.730Z,2.70
2022-09-26T21:22:38.657Z,2.43
2022-09-26T21:25:26.417Z,2.40
2022-09-26T21:28:26.537Z,2.67
2022-09-26T21:31:22.308Z,2.73
2022-09-26T21:34:13.629Z,2.73
2022-09-26T21:37:00.346Z,2.60
2022-09-26T21:39:45.909Z,2.43
2022-09-26T21:42:31.067Z,2.40
2022-09-26T21:45:19.815Z,2.67
2022-09-26T21:48:06.733Z,2.40
2022-09-26T21:50:58.357Z,2.33
2022-09-26T21:53:51.302Z,2.23
2022-09-26T21:56:43.984Z,2.03
2022-09-26T21:59:30.179Z,2.77
2022-09-26T22:02:15.433Z,2.20
2022-09-26T22:05:00.767Z,2.33
2022-09-26T22:07:46.230Z,2.20
2022-09-26T22:10:31.455Z,2.47
2022-09-26T22:13:16.816Z,2.20
2022-09-26T22:16:10.550Z,2.20
2022-09-26T22:18:56.447Z,2.50
2022-09-26T22:21:43.035Z,2.07
2022-09-26T22:24:28.368Z,3.77
2022-09-26T22:27:13.561Z,6.40
2022-09-26T22:29:58.695Z,57.37
2022-09-26T22:32:43.894Z,69.13
2022-09-26T22:35:29.105Z,46.07
2022-09-26T22:38:14.721Z,37.43
2022-09-26T22:41:03.055Z,33.13
2022-09-26T22:43:49.189Z,30.03
2022-09-26T22:46:34.840Z,26.33
2022-09-26T22:49:20.662Z,21.60
2022-09-26T22:52:05.622Z,19.03
2022-09-26T22:54:50.524Z,15.53
2022-09-26T22:57:36.022Z,17.50
2022-09-26T23:00:21.169Z,15.83
2022-09-26T23:03:06.714Z,15.20
2022-09-26T23:05:51.710Z,13.10
2022-09-26T23:08:37.049Z,11.17
2022-09-26T23:11:22.996Z,10.50
2022-09-26T23:14:08.326Z,11.60
2022-09-26T23:16:53.711Z,9.37
2022-09-26T23:19:40.075Z,8.13
2022-09-26T23:22:24.953Z,8.93
2022-09-26T23:25:10.024Z,8.33
2022-09-26T23:27:55.053Z,7.40
2022-09-26T23:30:40.442Z,7.37
2022-09-26T23:33:25.399Z,6.70
2022-09-26T23:36:11.286Z,7.17
2022-09-26T23:38:59.590Z,6.73
2022-09-26T23:41:44.811Z,6.57
2022-09-26T23:44:32.190Z,6.17
2022-09-26T23:47:17.231Z,6.03
2022-09-26T23:50:02.434Z,6.60
2022-09-26T23:52:47.551Z,5.53
2022-09-26T23:55:32.403Z,5.23
2022-09-26T23:58:17.749Z,5.30
